Flight Track Log - Related Links

Times and Time Zones

All times are in EDT time to prevent confusion due to time zone crossing. See the UAL4543 flight status page for this flight to view local times or setup timezone preferences in your user account.

Time Position Orientation Groundspeed Altitude Reporting Facility
EDT Latitude Longitude Course Direction KTS MPH feet Rate Location/Type
Thu 21:41:00 41.0084 -74.5441 316° Northwest  Level FlightAware Approximate
Thu 21:42:00 41.0866 -74.6446 316° Northwest  Level FlightAware Approximate
Thu 21:43:00 41.1451 -74.7462 298° West  Level FlightAware Approximate
Thu 21:44:00 41.2000 -74.8659 270° West  Level FlightAware Approximate
Thu 21:45:00 41.2524 -74.9894 298° West  Level FlightAware Approximate
Thu 21:46:00 41.3072 -75.1144 304° West  Level FlightAware Approximate
Thu 21:47:00 41.3649 -75.2372 298° West  Level FlightAware Approximate
Thu 21:48:00 41.4188 -75.3631 301° West  Level FlightAware Approximate
Thu 21:49:00 41.4723 -75.4890 288° West  Level FlightAware Approximate
Thu 21:50:00 41.5134 -75.6234 294° West  Level FlightAware Approximate
Thu 21:51:00 41.5413 -75.7612 291° West  Level FlightAware Approximate
Thu 21:52:00 41.5876 -75.8919 304° West  Level FlightAware Approximate
Thu 21:53:00 41.6207 -76.0288 294° West  Level FlightAware Approximate
Thu 21:54:00 41.6651 -76.1618 294° West  Level FlightAware Approximate
Thu 21:55:00 41.6973 -76.3003 283° West  Level FlightAware Approximate
Thu 21:56:00 41.7393 -76.4345 294° West  Level FlightAware Approximate
Thu 21:57:00 41.7775 -76.5707 285° West  Level FlightAware Approximate
Thu 21:58:00 41.8079 -76.7107 291° West  Level FlightAware Approximate
Thu 21:59:00 41.8469 -76.8471 291° West  Level FlightAware Approximate
Thu 22:00:00 41.8877 -76.9826 290° West  Level FlightAware Approximate
Thu 22:01:00 41.9253 -77.1198 290° West  Level FlightAware Approximate
Thu 22:02:00 41.9627 -77.2572 290° West  Level FlightAware Approximate
Thu 22:03:00 41.9995 -77.3950 289° West  Level FlightAware Approximate
Thu 22:04:00 42.0354 -77.5333 289° West  Level FlightAware Approximate
Thu 22:05:00 42.0713 -77.6717 289° West  Level FlightAware Approximate
Thu 22:06:00 42.1072 -77.8102 290° West  Level FlightAware Approximate
Thu 22:07:00 42.1442 -77.9482 290° West  Level FlightAware Approximate
Thu 22:08:00 42.1810 -78.0864 290° West  Level FlightAware Approximate
Thu 22:09:00 42.2177 -78.2247 290° West  Level FlightAware Approximate
Thu 22:10:00 42.2541 -78.3633 290° West  Level FlightAware Approximate
Thu 22:11:00 42.2905 -78.5019 290° West  Level FlightAware Approximate
Thu 22:12:00 42.3266 -78.6407 289° West  Level FlightAware Approximate
Thu 22:13:00 42.3620 -78.7800 289° West  Level FlightAware Approximate
Thu 22:14:00 42.3970 -78.9195 289° West  Level FlightAware Approximate
Thu 22:15:00 42.4319 -79.0592 289° West  Level FlightAware Approximate
Thu 22:16:00 42.4666 -79.1990 289° West  Level FlightAware Approximate
Thu 22:17:00 42.4873 -79.3427 274° West  Level FlightAware Approximate
Thu 22:18:00 42.4948 -79.4899 274° West  Level FlightAware Approximate
Thu 22:19:00 42.5021 -79.6372 274° West  Level FlightAware Approximate
Thu 22:20:00 42.5093 -79.7846 274° West  Level FlightAware Approximate
Thu 22:21:00 42.5162 -79.9319 274° West  Level FlightAware Approximate
Thu 22:22:00 42.5230 -80.0793 274° West  Level FlightAware Approximate
Thu 22:23:00 42.5295 -80.2267 274° West  Level FlightAware Approximate
Thu 22:24:00 42.5359 -80.3742 273° West  Level FlightAware Approximate
Thu 22:25:00 42.5421 -80.5217 273° West  Level FlightAware Approximate
Thu 22:26:00 42.5481 -80.6692 273° West  Level FlightAware Approximate
Thu 22:27:00 42.5527 -80.8168 272° West  Level FlightAware Approximate
Thu 22:28:00 42.5564 -80.9645 272° West  Level FlightAware Approximate
Thu 22:29:00 42.5599 -81.1122 272° West  Level FlightAware Approximate
Thu 22:30:00 42.5633 -81.2599 272° West  Level FlightAware Approximate
Thu 22:31:00 42.5665 -81.4076 272° West  Level FlightAware Approximate
Thu 22:32:00 42.5901 -81.5517 283° West  Level FlightAware Approximate
Thu 22:33:00 42.6149 -81.6957 283° West  Level FlightAware Approximate
Thu 22:34:00 42.6395 -81.8398 283° West  Level FlightAware Approximate
Thu 22:35:00 42.6640 -81.9840 283° West  Level FlightAware Approximate
Thu 22:36:00 42.6885 -82.1283 283° West  Level FlightAware Approximate
Thu 22:37:00 42.7128 -82.2726 283° West  Level FlightAware Approximate
Thu 22:38:00 42.7369 -82.4171 283° West  Level FlightAware Approximate
Thu 22:39:00 42.7609 -82.5617 283° West  Level FlightAware Approximate
Thu 22:40:00 42.7847 -82.7064 283° West  Level FlightAware Approximate
Thu 22:41:00 42.8097 -82.8507 285° West  Level FlightAware Approximate
Thu 22:42:00 42.8372 -82.9943 285° West  Level FlightAware Approximate
Thu 22:43:00 42.8644 -83.1381 285° West  Level FlightAware Approximate
Thu 22:44:00 42.8915 -83.2819 284° West  Level FlightAware Approximate
Thu 22:45:00 42.9182 -83.4260 282° West  Level FlightAware Approximate
Thu 22:46:00 42.9412 -83.5713 282° West  Level FlightAware Approximate
Thu 22:47:00 42.9641 -83.7167 282° West  Level FlightAware Approximate
Thu 22:48:00 42.9794 -83.8639 278° West  Level FlightAware Approximate
Thu 22:49:00 42.9935 -84.0115 278° West  Level FlightAware Approximate
Thu 22:50:00 43.0075 -84.1590 277° West  Level FlightAware Approximate
Thu 22:51:00 43.0213 -84.3067 277° West  Level FlightAware Approximate
Thu 22:52:00 43.0349 -84.4545 277° West  Level FlightAware Approximate
Thu 22:53:00 43.0483 -84.6022 277° West  Level FlightAware Approximate
Thu 22:54:00 43.0615 -84.7501 277° West  Level FlightAware Approximate
Thu 22:55:00 43.0745 -84.8980 277° West  Level FlightAware Approximate
Thu 22:56:00 43.0882 -85.0459 278° West  Level FlightAware Approximate
Thu 22:57:00 43.1038 -85.1934 278° West  Level FlightAware Approximate
Thu 22:58:00 43.1180 -85.3411 274° West  Level FlightAware Approximate
Thu 22:59:00 43.1259 -85.4899 274° West  Level FlightAware Approximate
Thu 23:00:00 43.1338 -85.6386 276° West  Level FlightAware Approximate
Thu 23:01:00 43.1458 -85.7869 276° West  Level FlightAware Approximate
Thu 23:02:00 43.1576 -85.9352 276° West  Level FlightAware Approximate
Thu 23:03:00 43.1693 -86.0836 276° West  Level FlightAware Approximate
Thu 23:04:00 43.1807 -86.2320 276° West  Level FlightAware Approximate
Thu 23:05:00 43.1810 -86.3810 268° West  Level FlightAware Approximate
Thu 23:06:00 43.1779 -86.5302 268° West  Level FlightAware Approximate
Thu 23:07:00 43.1745 -86.6794 268° West  Level FlightAware Approximate
Thu 23:08:00 43.1710 -86.8286 268° West  Level FlightAware Approximate
Thu 23:09:00 43.1672 -86.9777 268° West  Level FlightAware Approximate
Thu 23:10:00 43.1624 -87.1268 267° West  Level FlightAware Approximate
Thu 23:11:00 43.1571 -87.2759 267° West  Level FlightAware Approximate
Thu 23:12:00 43.1517 -87.4249 267° West  Level FlightAware Approximate
Thu 23:13:00 43.1461 -87.5739 267° West  Level FlightAware Approximate
Thu 23:14:00 43.1403 -87.7228 267° West  Level FlightAware Approximate
Thu 23:15:00 43.1343 -87.8718 267° West  Level FlightAware Approximate
Thu 23:16:00 43.1281 -88.0207 267° West  Level FlightAware Approximate
Thu 23:17:00 43.1217 -88.1695 267° West  Level FlightAware Approximate
Thu 23:18:00 43.1067 -88.3157 247° West  Level FlightAware Approximate
Thu 23:19:00 43.0645 -88.4531 247° West  Level FlightAware Approximate
Thu 23:20:00 43.0240 -88.5913 249° West  Level FlightAware Approximate
Thu 23:21:00 42.9843 -88.7299 249° West  Level FlightAware Approximate
Thu 23:22:00 42.9450 -88.8686 249° West  Level FlightAware Approximate
Thu 23:23:00 42.9054 -89.0071 249° West  Level FlightAware Approximate
Thu 23:24:00 42.8657 -89.1454 249° West  Level FlightAware Approximate
Thu 23:25:00 42.8254 -89.2832 248° West  Level FlightAware Approximate
Thu 23:26:00 42.7845 -89.4207 248° West  Level FlightAware Approximate
Thu 23:27:00 42.7435 -89.5581 248° West  Level FlightAware Approximate
Thu 23:28:00 42.7023 -89.6952 248° West  Level FlightAware Approximate
Thu 23:29:00 42.6609 -89.8322 248° West  Level FlightAware Approximate
Thu 23:30:00 42.6194 -89.9689 248° West  Level FlightAware Approximate
Thu 23:31:00 42.5777 -90.1055 248° West  Level FlightAware Approximate
Thu 23:32:00 42.5358 -90.2419 247° West  Level FlightAware Approximate
Thu 23:33:00 42.4931 -90.3778 247° West  Level FlightAware Approximate
Thu 23:34:00 42.4502 -90.5134 247° West  Level FlightAware Approximate
Thu 23:35:00 42.4122 -90.6514 251° West  Level FlightAware Approximate
Thu 23:36:00 42.3760 -90.7904 250° West  Level FlightAware Approximate
Thu 23:37:00 42.3390 -90.9289 250° West  Level FlightAware Approximate
Thu 23:38:00 42.2955 -91.0638 246° West  Level FlightAware Approximate
Thu 23:39:00 42.2507 -91.1979 246° West  Level FlightAware Approximate
Thu 23:40:00 42.2212 -91.3389 247° West  Level FlightAware Approximate
Thu 23:41:00 42.1790 -91.4743 247° West  Level FlightAware Approximate
Thu 23:42:00 42.1390 -91.6108 251° West  Level FlightAware Approximate
Thu 23:43:00 42.1027 -91.7491 249° West  Level FlightAware Approximate
Thu 23:44:00 42.0631 -91.8857 248° West  Level FlightAware Approximate
Thu 23:45:00 42.0230 -92.0220 248° West  Level FlightAware Approximate
Thu 23:46:00 41.9825 -92.1579 248° West  Level FlightAware Approximate
Thu 23:47:00 41.9413 -92.2934 248° West  Level FlightAware Approximate
Thu 23:48:00 41.9001 -92.4288 248° West  Level FlightAware Approximate
Thu 23:49:00 41.8586 -92.5639 248° West  Level FlightAware Approximate
Thu 23:50:00 41.8170 -92.6989 248° West  Level FlightAware Approximate
Thu 23:51:00 41.7777 -92.8337 246° West  Level FlightAware Approximate
Thu 23:52:00 41.7342 -92.9675 247° West  Level FlightAware Approximate
Thu 23:53:00 41.6922 -93.1020 247° West  Level FlightAware Approximate
Thu 23:54:00 41.6504 -93.2365 248° West  Level FlightAware Approximate
Thu 23:55:00 41.6089 -93.3711 248° West  Level FlightAware Approximate
Thu 23:56:00 41.5659 -93.5047 257° West  Level FlightAware Approximate
Thu 23:57:00 41.5354 -93.6437 246° West  Level FlightAware Approximate
Thu 23:58:00 41.5333 -93.6500 246° West  Level FlightAware Approximate
Thu 23:59:00 41.5340 -93.6631 246° West  Level Estimated
Fri 00:00:00 41.5340 -93.6631 246° West  Level Estimated
Fri 00:01:00 41.5340 -93.6631 246° West  Level Estimated
Fri 00:02:00 41.5340 -93.6631 246° West  Level Estimated
Fri 00:03:00 41.5340 -93.6631 246° West  Level Estimated
Fri 00:04:00 41.5340 -93.6631 246° West  Level Estimated
Fri 00:05:00 41.5340 -93.6631 246° West  Level Estimated
Fri 00:06:00 41.5340 -93.6631 246° West  Level Estimated
Fri 00:07:00 41.5340 -93.6631 246° West  Level Estimated
Fri 00:08:00 41.5340 -93.6631 246° West  Level Estimated
Fri 00:09:00 41.5340 -93.6631 246° West  Level Estimated
Fri 00:10:00 41.5340 -93.6631 246° West  Level Estimated
Fri 00:11:00 41.5340 -93.6631 246° West  Level Estimated
Fri 00:12:00 41.5340 -93.6631 246° West  Level Estimated
Fri 00:13:00 41.5340 -93.6631 246° West  Level Estimated

Login

Don't have an account? Register now (free) for customized features, flight alerts, and more!